Meteo Giornale » Osservazioni meteo Stati Uniti (USA) » Truckee-Tahoe
ore: 05:15 - Osservazioni Meteo Truckee-Tahoe
Lat. 39° 19' N Lon. 120° 8' W Alt. 1798 metri s.l.m.
12 °C
Sereno
Temp. 24 Ore
3 °C
26 °C
Sud-Ovest
11.1 Km/h
Dew point 0 °C
Umidità 43 %
Visibilità 10 Km
Il sole sorge alle ore 06:29
Il sole tramonta alle ore 19:31
| Data e Ora | Cielo e Fenomeni | T °C | DP °C | Um. % | Pres. hPa | Vis. km | Vento km/h | |
|---|---|---|---|---|---|---|---|---|
| Oggi h: 05:15 | Sereno | 12 | 0 | 43 | 1017 | 10 | SO 11.1 | |
| Oggi h: 04:55 | Sereno | 12 | 0 | 43 | 1018 | 10 | O/SO 11.1 | |
| Oggi h: 04:35 | Sereno | 12 | 1 | 46 | 1018 | 10 | O/SO 7.4 | |
| Oggi h: 04:15 | Sereno | 13 | 1 | 43 | 1018 | 10 | SO 9.3 | |
| Oggi h: 03:55 | Sereno | 13 | 1 | 43 | 1018 | 10 | SO 9.3 | |
| Oggi h: 03:35 | Sereno | 13 | 1 | 43 | 1017 | 10 | S/SO 14.8 | |
| Oggi h: 03:15 | Sereno | 13 | 1 | 43 | 1018 | 10 | SO 18.5 | |
| Oggi h: 02:55 | Sereno | 14 | 2 | 44 | 1018 | 10 | SO 16.7 | |
| Oggi h: 02:35 | Sereno | 14 | 2 | 44 | 1018 | 10 | O/SO 13 | |
| Oggi h: 02:15 | Sereno | 13 | 2 | 47 | 1018 | 10 | O/SO 11.1 | |
| Oggi h: 01:55 | Sereno | 14 | 2 | 44 | 1018 | 10 | O/SO 14.8 | |
| Oggi h: 01:35 | Sereno | 13 | 2 | 47 | 1018 | 10 | O/SO 14.8 | |
| Oggi h: 01:15 | Sereno | 13 | 2 | 47 | 1018 | 10 | O 14.8 | |
| Oggi h: 00:55 | Sereno | 13 | 2 | 47 | 1018 | 10 | O/SO 14.8 | |
| Oggi h: 00:35 | Sereno | 13 | 2 | 47 | 1018 | 10 | O 20.3 | |
| Oggi h: 00:15 | Sereno | 14 | 3 | 47 | 1018 | 10 | O 20.3 | |
| Ieri h: 23:55 | Sereno | 14 | 3 | 47 | 1018 | 10 | O 18.5 | |
| Ieri h: 23:35 | Sereno | 14 | 3 | 47 | 1018 | 10 | O 20.3 | |
| Ieri h: 23:15 | Sereno | 15 | 2 | 41 | 1018 | 10 | O 18.5 | |
| Ieri h: 22:55 | Sereno | 15 | 2 | 41 | 1018 | 10 | O 14.8 | |
| Ieri h: 22:35 | Sereno | 15 | 2 | 41 | 1018 | 10 | O 18.5 | |
| Ieri h: 22:15 | Sereno | 15 | 3 | 44 | 1018 | 10 | O 14.8 | |
| Ieri h: 21:55 | Sereno | 15 | 3 | 44 | 1018 | 10 | O 11.1 | |
| Ieri h: 21:35 | Sereno | 15 | 3 | 44 | 1018 | 10 | O 13 | |
| Ieri h: 21:15 | Sereno | 15 | 3 | 44 | 1018 | 10 | O/NO 11.1 | |
| Ieri h: 20:55 | Sereno | 15 | 3 | 44 | 1018 | 10 | O 9.3 | |
| Ieri h: 20:35 | Sereno | 16 | 3 | 41 | 1018 | 10 | O 9.3 | |
| Ieri h: 20:15 | Sereno | 15 | 3 | 44 | 1018 | 10 | SO 13 | |
| Ieri h: 19:47 | Nuvoloso | 17 | 3 | 39 | 1018 | 10 | S/SO 11.1 | |
| Ieri h: 18:47 | Nuvoloso | 20 | 3 | 32 | 1018 | 10 | S/SO 14.8 | |
| Ieri h: 17:47 | Poco Nuvoloso | 23 | 3 | 26 | 1017 | 10 | SO 22.2 | |
| Ieri h: 16:50 | Poco Nuvoloso | 24 | 3 | 25 | 1017 | 10 | N 0 | |
| Ieri h: 15:50 | Poco Nuvoloso | 25 | 2 | 22 | 1017 | 10 | SO 24 | |
| Ieri h: 14:47 | Poco Nuvoloso | 26 | 1 | 19 | 1018 | 11 | S 25.9 | |
| Ieri h: 13:50 | Poco Nuvoloso | 26 | 1 | 19 | 1018 | 11 | SO 11.1 | |
| Ieri h: 12:49 | Poco Nuvoloso | 25 | 1 | 20 | 1018 | 11 | SO 13 | |
| Ieri h: 11:50 | Sereno | 23 | 1 | 23 | 1019 | 11 | O 18.5 | |
| Ieri h: 10:50 | Sereno | 21 | 2 | 28 | 1019 | 11 | N 0 | |
| Ieri h: 09:50 | Sereno | 16 | 4 | 44 | 1019 | 11 | N 0 | |
| Ieri h: 08:49 | Sereno | 11 | 3 | 57 | 1020 | 10 | N 0 | |
| Ieri h: 07:47 | Sereno | 6 | 2 | 75 | 1020 | 10 | N 0 | |
| Ieri h: 06:47 | Sereno | 3 | 2 | 93 | 1020 | 10 | N 0 | |
| Ieri h: 06:35 | Sereno | 3 | 2 | 93 | 1020 | 10 | N 0 | |
| Ieri h: 06:15 | Sereno | 3 | 1 | 86 | 1020 | 10 | N 0 | |
| Ieri h: 05:55 | Sereno | 4 | 2 | 86 | 1020 | 10 | N 0 | |
| Ieri h: 05:35 | Sereno | 4 | 1 | 80 | 1020 | 10 | N 0 | |



